Time;durP1;ratioP1;P1;durP2;ratioP2;P2;SDS_P1;SDS_P2;PMS_P1;PMS_P2;Temp;Humidity;BMP_temperature;BMP_pressure;BME280_temperature;BME280_humidity;BME280_pressure;Samples;Min_cycle;Max_cycle;Signal;HPM_P1;HPM_P2
2024/01/26 00:01:39;;;;;;;105.78;59.95;;;;;;;;;;5043272;28;20060;-51
2024/01/26 00:04:05;;;;;;;104.55;63.25;;;;;;;;;;5051020;28;20036;-48
2024/01/26 00:06:31;;;;;;;102.15;59.90;;;;;;;;;;5025308;28;20432;-48
2024/01/26 00:09:09;;;;;;;101.80;60.70;;;;;;;;;;5013655;28;20108;-48
2024/01/26 00:11:35;;;;;;;102.25;59.22;;;;;;;;;;5002724;28;20144;-47
2024/01/26 00:14:01;;;;;;;102.32;59.92;;;;;;;;;;5027537;28;20496;-47
2024/01/26 00:16:28;;;;;;;98.75;61.60;;;;;;;;;;5040041;28;20033;-48
2024/01/26 00:18:54;;;;;;;91.57;59.72;;;;;;;;;;5017182;28;20021;-48
2024/01/26 00:21:20;;;;;;;106.32;61.13;;;;;;;;;;5017401;28;20347;-48
2024/01/26 00:23:46;;;;;;;99.70;61.33;;;;;;;;;;5046802;28;20025;-46
2024/01/26 00:26:13;;;;;;;103.30;58.75;;;;;;;;;;5045188;28;20033;-47
2024/01/26 00:28:39;;;;;;;101.13;59.97;;;;;;;;;;5034664;28;20060;-47
2024/01/26 00:31:06;;;;;;;110.55;61.78;;;;;;;;;;5040027;28;20024;-47
2024/01/26 00:33:32;;;;;;;;;;;;;;;;;;5054589;28;20017;-47
2024/01/26 00:35:58;;;;;;;104.57;59.25;;;;;;;;;;5013277;28;20229;-47
2024/01/26 00:38:24;;;;;;;109.00;64.28;;;;;;;;;;5017273;28;20810;-47
2024/01/26 00:40:51;;;;;;;107.07;64.28;;;;;;;;;;5035581;28;20164;-50
2024/01/26 00:43:17;;;;;;;105.87;62.20;;;;;;;;;;5018196;28;20543;-48
2024/01/26 00:45:44;;;;;;;114.63;65.28;;;;;;;;;;5052421;28;20025;-48
2024/01/26 00:48:10;;;;;;;111.70;64.38;;;;;;;;;;5036241;28;20036;-47
2024/01/26 00:50:36;;;;;;;110.03;65.60;;;;;;;;;;5050681;28;20530;-47
2024/01/26 00:53:03;;;;;;;106.13;59.75;;;;;;;;;;5053878;28;20032;-47
2024/01/26 00:55:30;;;;;;;92.97;58.72;;;;;;;;;;5053860;28;20033;-47
2024/01/26 00:57:56;;;;;;;102.70;60.30;;;;;;;;;;5052154;28;20471;-47
2024/01/26 01:00:24;;;;;;;95.78;56.13;;;;;;;;;;5051728;28;20036;-49
2024/01/26 01:02:50;;;;;;;101.88;63.47;;;;;;;;;;5042742;28;20092;-47
2024/01/26 01:05:17;;;;;;;106.55;60.60;;;;;;;;;;5035050;28;20036;-48
2024/01/26 01:07:43;;;;;;;101.13;57.70;;;;;;;;;;5052031;28;20112;-47
2024/01/26 01:10:11;;;;;;;95.18;59.67;;;;;;;;;;5035600;28;20271;-48
2024/01/26 01:12:41;;;;;;;97.45;56.90;;;;;;;;;;5033568;28;20032;-46
2024/01/26 01:15:17;;;;;;;93.95;56.90;;;;;;;;;;5019815;28;20144;-49
2024/01/26 01:17:43;;;;;;;96.25;60.13;;;;;;;;;;5035651;28;20475;-47
2024/01/26 01:20:10;;;;;;;95.15;55.70;;;;;;;;;;5053266;28;20529;-47
2024/01/26 01:22:37;;;;;;;100.18;60.72;;;;;;;;;;5049497;28;20033;-47
2024/01/26 01:25:06;;;;;;;84.85;56.05;;;;;;;;;;5023830;28;20029;-47
2024/01/26 01:27:33;;;;;;;96.40;58.38;;;;;;;;;;5053161;28;20524;-47
2024/01/26 01:29:59;;;;;;;228.27;70.47;;;;;;;;;;5029264;28;20022;-47
2024/01/26 01:32:26;;;;;;;93.82;57.58;;;;;;;;;;5015769;28;20399;-47
2024/01/26 01:34:53;;;;;;;85.20;54.25;;;;;;;;;;5019623;28;20033;-47
2024/01/26 01:37:19;;;;;;;91.25;56.97;;;;;;;;;;5033464;28;20512;-47
2024/01/26 01:39:45;;;;;;;69.17;47.23;;;;;;;;;;5034487;28;20030;-47
2024/01/26 01:42:14;;;;;;;221.80;60.22;;;;;;;;;;5047546;28;20025;-46
2024/01/26 01:44:46;;;;;;;237.00;61.15;;;;;;;;;;5051279;28;20100;-47
2024/01/26 01:47:13;;;;;;;420.65;74.43;;;;;;;;;;5035715;28;20025;-48
2024/01/26 01:49:39;;;;;;;378.58;75.75;;;;;;;;;;5032784;28;20175;-47
2024/01/26 01:52:08;;;;;;;236.40;59.00;;;;;;;;;;5033117;28;20435;-48
2024/01/26 01:54:34;;;;;;;85.90;48.83;;;;;;;;;;5032846;28;20037;-48
2024/01/26 01:57:04;;;;;;;62.53;46.50;;;;;;;;;;5032674;28;20021;-48
2024/01/26 01:59:33;;;;;;;78.32;44.17;;;;;;;;;;5032441;28;20025;-47
2024/01/26 02:02:00;;;;;;;219.73;59.90;;;;;;;;;;5031384;28;20550;-47
2024/01/26 02:04:26;;;;;;;77.28;50.00;;;;;;;;;;5032707;28;20025;-47
2024/01/26 02:06:56;;;;;;;70.35;50.17;;;;;;;;;;5032829;28;20028;-47
2024/01/26 02:09:22;;;;;;;74.35;51.95;;;;;;;;;;5031826;28;20025;-46
2024/01/26 02:11:48;;;;;;;67.70;48.13;;;;;;;;;;5032882;28;20021;-47
2024/01/26 02:14:15;;;;;;;69.38;49.33;;;;;;;;;;5032511;28;20029;-48
2024/01/26 02:16:52;;;;;;;69.63;48.43;;;;;;;;;;5032715;28;20076;-46
2024/01/26 02:19:18;;;;;;;74.63;51.00;;;;;;;;;;5031315;28;20272;-46
2024/01/26 02:21:44;;;;;;;80.45;53.85;;;;;;;;;;5032654;28;20029;-47
2024/01/26 02:24:12;;;;;;;75.07;52.00;;;;;;;;;;5032493;28;20033;-47
2024/01/26 02:26:39;;;;;;;212.88;59.83;;;;;;;;;;5030941;28;20029;-49
2024/01/26 02:29:06;;;;;;;85.55;52.08;;;;;;;;;;5032554;28;20030;-48
2024/01/26 02:31:32;;;;;;;91.35;48.42;;;;;;;;;;5032427;28;20048;-47
2024/01/26 02:33:58;;;;;;;200.57;55.43;;;;;;;;;;5030964;28;20038;-47
2024/01/26 02:36:25;;;;;;;158.50;54.78;;;;;;;;;;5032537;28;20431;-46
2024/01/26 02:38:51;;;;;;;;;;;;;;;;;;5032819;28;20025;-47
2024/01/26 02:41:17;;;;;;;251.95;66.22;;;;;;;;;;5032303;28;20399;-48
2024/01/26 02:43:44;;;;;;;113.65;53.17;;;;;;;;;;5032049;28;20044;-47
2024/01/26 02:46:10;;;;;;;89.30;56.60;;;;;;;;;;5032308;28;20029;-47
2024/01/26 02:48:36;;;;;;;71.07;47.33;;;;;;;;;;5032356;28;20029;-47
2024/01/26 02:51:03;;;;;;;69.70;48.92;;;;;;;;;;5032244;28;20103;-47
2024/01/26 02:53:29;;;;;;;67.87;48.40;;;;;;;;;;5032082;28;20021;-47
2024/01/26 02:55:55;;;;;;;71.28;48.70;;;;;;;;;;5032007;28;20483;-47
2024/01/26 02:58:21;;;;;;;69.53;49.60;;;;;;;;;;5031272;28;20036;-47
2024/01/26 03:00:48;;;;;;;75.30;50.20;;;;;;;;;;5030043;28;20037;-48
2024/01/26 03:03:14;;;;;;;74.07;49.97;;;;;;;;;;5028730;28;20052;-47
2024/01/26 03:05:40;;;;;;;71.80;48.45;;;;;;;;;;5030102;28;20487;-47
2024/01/26 03:08:07;;;;;;;73.28;50.72;;;;;;;;;;5030675;28;20037;-47
2024/01/26 03:10:33;;;;;;;78.53;51.65;;;;;;;;;;5030517;28;20025;-47
2024/01/26 03:12:59;;;;;;;77.83;49.90;;;;;;;;;;5031000;28;20087;-47
2024/01/26 03:15:25;;;;;;;68.60;46.42;;;;;;;;;;5031650;28;20033;-47
2024/01/26 03:17:52;;;;;;;89.38;53.15;;;;;;;;;;5031800;28;20033;-47
2024/01/26 03:20:18;;;;;;;98.93;54.40;;;;;;;;;;5031658;28;20114;-49
2024/01/26 03:22:44;;;;;;;96.63;54.47;;;;;;;;;;5030336;28;20187;-47
2024/01/26 03:25:11;;;;;;;119.13;56.22;;;;;;;;;;5031513;28;20045;-47
2024/01/26 03:27:37;;;;;;;167.98;57.45;;;;;;;;;;5031655;28;20029;-47
2024/01/26 03:30:04;;;;;;;134.07;58.97;;;;;;;;;;5031584;28;20420;-47
2024/01/26 03:32:30;;;;;;;275.23;65.90;;;;;;;;;;5031561;28;20260;-47
2024/01/26 03:34:56;;;;;;;346.45;83.32;;;;;;;;;;5030272;28;20124;-47
2024/01/26 03:37:22;;;;;;;407.52;76.35;;;;;;;;;;5031463;28;20057;-47
2024/01/26 03:39:48;;;;;;;255.52;69.20;;;;;;;;;;5030847;28;20079;-46
2024/01/26 03:42:15;;;;;;;198.02;61.42;;;;;;;;;;5030415;28;20107;-48
2024/01/26 03:44:42;;;;;;;170.07;60.70;;;;;;;;;;5032636;28;20075;-47
2024/01/26 03:47:08;;;;;;;;;;;;;;;;;;5036065;28;20041;-47
2024/01/26 03:49:34;;;;;;;266.02;70.63;;;;;;;;;;5040347;28;20379;-47
2024/01/26 03:52:00;;;;;;;302.73;65.60;;;;;;;;;;5053723;28;20029;-47
2024/01/26 03:54:26;;;;;;;255.57;68.27;;;;;;;;;;5050662;28;20542;-47
2024/01/26 03:56:53;;;;;;;282.40;68.60;;;;;;;;;;5038781;28;20072;-46
2024/01/26 03:59:19;;;;;;;273.48;66.15;;;;;;;;;;5038452;28;20059;-46
2024/01/26 04:01:45;;;;;;;292.23;73.72;;;;;;;;;;5051626;28;20040;-47
2024/01/26 04:04:12;;;;;;;319.03;71.93;;;;;;;;;;5027095;28;20069;-47
2024/01/26 04:06:41;;;;;;;258.65;54.55;;;;;;;;;;5037224;28;20399;-47
2024/01/26 04:09:08;;;;;;;303.05;75.32;;;;;;;;;;5054966;28;20048;-46
2024/01/26 04:11:34;;;;;;;291.48;71.40;;;;;;;;;;5020549;28;20025;-47
2024/01/26 04:14:00;;;;;;;311.05;79.32;;;;;;;;;;5042041;28;20032;-46
2024/01/26 04:16:26;;;;;;;368.40;76.88;;;;;;;;;;5008857;28;20036;-46
2024/01/26 04:18:52;;;;;;;366.52;84.03;;;;;;;;;;5013015;28;20036;-48
2024/01/26 04:21:19;;;;;;;273.10;73.40;;;;;;;;;;5051006;28;20021;-47
2024/01/26 04:23:45;;;;;;;358.90;78.10;;;;;;;;;;5036096;28;20365;-49
2024/01/26 04:26:11;;;;;;;285.57;72.37;;;;;;;;;;5034982;28;20083;-47
2024/01/26 04:28:38;;;;;;;305.80;72.82;;;;;;;;;;5025514;28;20039;-48
2024/01/26 04:31:04;;;;;;;283.37;80.27;;;;;;;;;;5046385;28;20025;-47
2024/01/26 04:33:31;;;;;;;261.30;78.53;;;;;;;;;;5017929;28;20079;-47
2024/01/26 04:35:57;;;;;;;306.02;74.65;;;;;;;;;;5041494;28;20500;-47
2024/01/26 04:38:23;;;;;;;534.47;119.27;;;;;;;;;;5054036;28;20135;-49
2024/01/26 04:40:49;;;;;;;270.35;80.57;;;;;;;;;;5035245;28;20434;-46
2024/01/26 04:43:15;;;;;;;210.73;73.28;;;;;;;;;;5034465;28;20120;-46
2024/01/26 04:45:41;;;;;;;314.33;78.77;;;;;;;;;;5035401;28;20089;-47
2024/01/26 04:48:08;;;;;;;233.23;76.50;;;;;;;;;;5026955;28;20033;-47
2024/01/26 04:50:34;;;;;;;341.27;84.45;;;;;;;;;;5053906;28;20305;-47
2024/01/26 04:53:00;;;;;;;278.53;76.87;;;;;;;;;;5052851;28;20044;-45
2024/01/26 04:55:28;;;;;;;203.93;71.83;;;;;;;;;;5048328;28;20026;-50
2024/01/26 04:57:54;;;;;;;253.65;78.30;;;;;;;;;;5020577;28;20112;-47
2024/01/26 05:00:21;;;;;;;274.67;77.87;;;;;;;;;;5042363;28;20029;-47
2024/01/26 05:02:47;;;;;;;414.77;106.90;;;;;;;;;;5016339;28;20025;-48
2024/01/26 05:05:13;;;;;;;267.58;78.05;;;;;;;;;;5033870;28;20035;-47
2024/01/26 05:07:40;;;;;;;314.48;84.82;;;;;;;;;;5033992;28;20017;-46
2024/01/26 05:10:07;;;;;;;289.30;83.05;;;;;;;;;;5033919;28;20321;-47
2024/01/26 05:12:33;;;;;;;224.02;74.40;;;;;;;;;;5016379;28;20372;-47
2024/01/26 05:14:59;;;;;;;376.45;91.13;;;;;;;;;;5033786;28;20029;-47
2024/01/26 05:17:26;;;;;;;218.93;70.68;;;;;;;;;;5016126;28;20023;-46
2024/01/26 05:19:52;;;;;;;233.07;76.13;;;;;;;;;;5016040;28;20043;-46
2024/01/26 05:22:18;;;;;;;231.00;70.07;;;;;;;;;;5033630;28;20141;-47
2024/01/26 05:24:45;;;;;;;190.88;69.07;;;;;;;;;;5033531;28;20033;-46
2024/01/26 05:27:11;;;;;;;173.95;64.53;;;;;;;;;;5033771;28;20062;-47
2024/01/26 05:29:38;;;;;;;161.65;63.15;;;;;;;;;;5033603;28;20029;-47
2024/01/26 05:32:05;;;;;;;163.67;65.50;;;;;;;;;;5033527;28;20032;-47
2024/01/26 05:34:31;;;;;;;251.60;75.70;;;;;;;;;;4999175;28;20315;-47
2024/01/26 05:36:57;;;;;;;188.45;65.35;;;;;;;;;;5033530;28;20105;-47
2024/01/26 05:39:23;;;;;;;196.00;67.37;;;;;;;;;;5033448;28;20037;-46
2024/01/26 05:41:49;;;;;;;212.07;67.85;;;;;;;;;;5015851;28;20784;-47
2024/01/26 05:44:15;;;;;;;188.50;69.60;;;;;;;;;;5033208;28;20029;-50
2024/01/26 05:46:42;;;;;;;178.07;66.10;;;;;;;;;;5033388;28;20029;-47
2024/01/26 05:49:09;;;;;;;196.53;70.93;;;;;;;;;;5033100;28;20029;-47
2024/01/26 05:51:35;;;;;;;;;;;;;;;;;;5032896;28;20559;-47
2024/01/26 05:54:02;;;;;;;369.73;81.90;;;;;;;;;;5032162;28;20395;-47
2024/01/26 05:56:28;;;;;;;229.77;73.60;;;;;;;;;;5032300;28;20037;-47
2024/01/26 05:58:54;;;;;;;252.30;74.40;;;;;;;;;;5032199;28;20087;-46
2024/01/26 06:01:20;;;;;;;294.47;83.13;;;;;;;;;;5032079;28;20407;-46
2024/01/26 06:03:46;;;;;;;323.40;81.83;;;;;;;;;;5032106;28;20998;-49
2024/01/26 06:06:13;;;;;;;491.73;98.17;;;;;;;;;;5030974;28;20037;-48
2024/01/26 06:08:42;;;;;;;425.93;94.53;;;;;;;;;;5030141;28;20721;-47
2024/01/26 06:11:09;;;;;;;413.73;93.28;;;;;;;;;;5032093;28;20030;-46
2024/01/26 06:13:36;;;;;;;;;;;;;;;;;;5032361;28;20554;-49
2024/01/26 06:16:03;;;;;;;483.25;98.00;;;;;;;;;;5031926;28;20352;-46
2024/01/26 06:18:29;;;;;;;530.75;117.85;;;;;;;;;;5031886;28;20026;-47
2024/01/26 06:20:55;;;;;;;463.73;119.22;;;;;;;;;;5031919;28;20108;-47
2024/01/26 06:23:22;;;;;;;520.95;118.32;;;;;;;;;;5031770;28;20029;-48
2024/01/26 06:25:48;;;;;;;358.42;102.93;;;;;;;;;;5031786;28;20034;-47
2024/01/26 06:28:14;;;;;;;557.40;123.75;;;;;;;;;;5031771;28;20030;-46
2024/01/26 06:30:40;;;;;;;519.57;138.03;;;;;;;;;;5029890;28;20033;-47
2024/01/26 06:33:07;;;;;;;466.48;108.55;;;;;;;;;;5030351;28;20479;-47
2024/01/26 06:35:33;;;;;;;520.57;122.60;;;;;;;;;;5030353;28;20087;-45
2024/01/26 06:37:59;;;;;;;553.97;127.53;;;;;;;;;;5031798;28;20624;-49
2024/01/26 06:40:26;;;;;;;447.38;116.47;;;;;;;;;;5031609;28;20060;-47
2024/01/26 06:42:52;;;;;;;488.67;132.23;;;;;;;;;;5031500;28;20529;-46
2024/01/26 06:45:18;;;;;;;533.30;126.13;;;;;;;;;;5031399;28;20518;-48
2024/01/26 06:47:44;;;;;;;544.93;143.60;;;;;;;;;;5031448;28;20447;-47
2024/01/26 06:50:10;;;;;;;581.63;145.70;;;;;;;;;;4987492;28;1279036;-46
2024/01/26 06:52:37;;;;;;;501.20;130.80;;;;;;;;;;5032282;28;20132;-46
2024/01/26 06:55:03;;;;;;;532.40;129.63;;;;;;;;;;5032014;28;20029;-47
2024/01/26 06:57:30;;;;;;;476.13;124.43;;;;;;;;;;5032104;28;20392;-46
2024/01/26 06:59:56;;;;;;;335.38;109.75;;;;;;;;;;5032042;28;20033;-46
2024/01/26 07:02:22;;;;;;;901.50;196.50;;;;;;;;;;5030357;28;20029;-46
2024/01/26 07:04:48;;;;;;;460.02;127.65;;;;;;;;;;5031863;28;20105;-46
2024/01/26 07:07:14;;;;;;;477.30;131.33;;;;;;;;;;5030608;28;20025;-47
2024/01/26 07:09:41;;;;;;;529.97;153.80;;;;;;;;;;5030641;28;20272;-46
2024/01/26 07:12:07;;;;;;;487.10;117.30;;;;;;;;;;5030701;28;20083;-46
2024/01/26 07:14:33;;;;;;;470.77;133.77;;;;;;;;;;5031739;28;20080;-46
2024/01/26 07:16:59;;;;;;;576.05;150.75;;;;;;;;;;5031661;28;20025;-46
2024/01/26 07:19:25;;;;;;;444.00;141.57;;;;;;;;;;5029664;28;20025;-47
2024/01/26 07:21:52;;;;;;;508.60;142.67;;;;;;;;;;5031765;28;20034;-46
2024/01/26 07:24:18;;;;;;;682.63;176.50;;;;;;;;;;5030229;28;20670;-46
2024/01/26 07:26:46;;;;;;;779.78;189.40;;;;;;;;;;5031693;28;20299;-45
2024/01/26 07:29:12;;;;;;;705.85;171.75;;;;;;;;;;5031547;28;20021;-45
2024/01/26 07:31:40;;;;;;;431.97;132.33;;;;;;;;;;5031576;28;20029;-50
2024/01/26 07:34:06;;;;;;;1028.57;217.32;;;;;;;;;;5031532;28;20495;-46
2024/01/26 07:36:36;;;;;;;1026.25;226.48;;;;;;;;;;5031644;28;20156;-47
2024/01/26 07:39:04;;;;;;;654.55;162.88;;;;;;;;;;5031532;28;20038;-48
2024/01/26 07:41:30;;;;;;;506.92;136.50;;;;;;;;;;5031583;28;20079;-46
2024/01/26 07:43:56;;;;;;;482.88;135.40;;;;;;;;;;5031398;28;20037;-46
2024/01/26 07:46:22;;;;;;;454.50;127.57;;;;;;;;;;5031519;28;20641;-47
2024/01/26 07:48:48;;;;;;;902.08;205.60;;;;;;;;;;5030163;28;20036;-47
2024/01/26 07:51:15;;;;;;;559.20;142.90;;;;;;;;;;5013675;28;20030;-48
2024/01/26 07:53:41;;;;;;;417.10;125.05;;;;;;;;;;5031293;28;20026;-49
2024/01/26 07:56:07;;;;;;;668.15;168.63;;;;;;;;;;5031413;28;20038;-47
2024/01/26 07:58:33;;;;;;;458.70;139.60;;;;;;;;;;5030103;28;20046;-48
2024/01/26 08:00:59;;;;;;;582.20;145.63;;;;;;;;;;5031416;28;20275;-47
2024/01/26 08:03:26;;;;;;;689.00;165.13;;;;;;;;;;5029856;28;20030;-48
2024/01/26 08:05:52;;;;;;;993.50;219.37;;;;;;;;;;5031470;28;20061;-45
2024/01/26 08:08:18;;;;;;;644.08;160.45;;;;;;;;;;5030085;28;20133;-46
2024/01/26 08:10:44;;;;;;;674.17;167.02;;;;;;;;;;5031303;28;20026;-48
2024/01/26 08:13:10;;;;;;;456.33;133.68;;;;;;;;;;5030032;28;20558;-46
2024/01/26 08:15:37;;;;;;;642.97;164.50;;;;;;;;;;5031107;28;20516;-45
2024/01/26 08:18:03;;;;;;;540.60;139.77;;;;;;;;;;5031123;28;20029;-46
2024/01/26 08:20:29;;;;;;;693.53;160.13;;;;;;;;;;5031291;28;20095;-50
2024/01/26 08:22:56;;;;;;;781.57;167.53;;;;;;;;;;5030105;28;20036;-47
2024/01/26 08:25:22;;;;;;;879.20;187.60;;;;;;;;;;5029832;28;20041;-49
2024/01/26 08:27:48;;;;;;;573.47;152.10;;;;;;;;;;5030034;28;20492;-49
2024/01/26 08:30:15;;;;;;;510.17;149.37;;;;;;;;;;5014236;28;20037;-49
2024/01/26 08:32:41;;;;;;;863.38;188.95;;;;;;;;;;5034858;28;20408;-48
2024/01/26 08:35:09;;;;;;;762.37;169.17;;;;;;;;;;5034370;28;20506;-47
2024/01/26 08:37:35;;;;;;;762.72;180.27;;;;;;;;;;5033462;28;20673;-46
2024/01/26 08:40:02;;;;;;;517.53;131.90;;;;;;;;;;5034489;28;20042;-47
2024/01/26 08:42:28;;;;;;;677.03;174.05;;;;;;;;;;5034595;28;20047;-48
2024/01/26 08:44:54;;;;;;;800.40;179.07;;;;;;;;;;5034569;28;20468;-47
2024/01/26 08:47:20;;;;;;;556.55;152.18;;;;;;;;;;5034690;28;20075;-47
2024/01/26 08:49:46;;;;;;;512.42;147.88;;;;;;;;;;5034404;28;20048;-47
2024/01/26 08:52:13;;;;;;;756.47;173.57;;;;;;;;;;5033267;28;20120;-47
2024/01/26 08:54:39;;;;;;;666.00;165.30;;;;;;;;;;5034334;28;20034;-47
2024/01/26 08:57:05;;;;;;;444.40;130.82;;;;;;;;;;5034471;28;20025;-48
2024/01/26 08:59:32;;;;;;;612.63;155.73;;;;;;;;;;5034350;28;20037;-46
2024/01/26 09:01:58;;;;;;;740.13;179.13;;;;;;;;;;5034240;28;20033;-47
2024/01/26 09:04:24;;;;;;;723.05;164.57;;;;;;;;;;5032858;28;20061;-47
2024/01/26 09:06:50;;;;;;;500.13;137.33;;;;;;;;;;5032996;28;20127;-45
2024/01/26 09:09:17;;;;;;;523.88;136.35;;;;;;;;;;5034168;28;20502;-45
2024/01/26 09:11:43;;;;;;;688.72;168.15;;;;;;;;;;5034165;28;20026;-44
2024/01/26 09:14:09;;;;;;;479.25;125.63;;;;;;;;;;5032730;28;20037;-46
2024/01/26 09:16:36;;;;;;;530.97;143.48;;;;;;;;;;5034079;28;20440;-44
2024/01/26 09:19:02;;;;;;;520.85;136.52;;;;;;;;;;5033971;28;20026;-45
2024/01/26 09:21:28;;;;;;;529.92;137.13;;;;;;;;;;5033537;28;20373;-46
2024/01/26 09:23:54;;;;;;;590.72;143.52;;;;;;;;;;5033482;28;20029;-44
2024/01/26 09:26:21;;;;;;;437.27;121.88;;;;;;;;;;5033746;28;20026;-45
2024/01/26 09:28:47;;;;;;;390.70;113.10;;;;;;;;;;5033349;28;20028;-45
2024/01/26 09:31:14;;;;;;;518.65;125.80;;;;;;;;;;5033700;28;20030;-45
2024/01/26 09:33:40;;;;;;;567.17;137.35;;;;;;;;;;5033269;28;20088;-47
2024/01/26 09:36:06;;;;;;;413.00;108.93;;;;;;;;;;5033607;28;20037;-45
2024/01/26 09:38:32;;;;;;;473.13;120.68;;;;;;;;;;5032158;28;20502;-45
2024/01/26 09:40:58;;;;;;;739.80;143.15;;;;;;;;;;5033458;28;20033;-45
2024/01/26 09:43:25;;;;;;;495.65;112.55;;;;;;;;;;5032452;28;20029;-46
2024/01/26 09:45:54;;;;;;;465.67;118.60;;;;;;;;;;5033355;28;20484;-45
2024/01/26 09:48:20;;;;;;;472.38;115.97;;;;;;;;;;5033215;28;20049;-45
2024/01/26 09:50:52;;;;;;;458.70;111.95;;;;;;;;;;5032041;28;20099;-44
2024/01/26 09:53:19;;;;;;;385.65;94.78;;;;;;;;;;5033671;28;20352;-45
2024/01/26 09:55:48;;;;;;;375.13;100.03;;;;;;;;;;5032978;28;20025;-46
2024/01/26 09:58:14;;;;;;;356.65;96.65;;;;;;;;;;5033180;28;20033;-46
2024/01/26 10:00:42;;;;;;;470.27;111.45;;;;;;;;;;5031770;28;20412;-45
2024/01/26 10:03:08;;;;;;;;;;;;;;;;;;5032136;28;20037;-48
2024/01/26 10:05:34;;;;;;;342.38;95.22;;;;;;;;;;5032866;28;20280;-47
2024/01/26 10:08:01;;;;;;;488.67;109.78;;;;;;;;;;5031759;28;20037;-45
2024/01/26 10:10:27;;;;;;;330.13;85.45;;;;;;;;;;5032928;28;20472;-44
2024/01/26 10:12:53;;;;;;;311.42;89.85;;;;;;;;;;5032936;28;20061;-44
2024/01/26 10:15:19;;;;;;;496.50;112.13;;;;;;;;;;5031393;28;20037;-46
2024/01/26 10:17:45;;;;;;;419.40;103.82;;;;;;;;;;5032772;28;20056;-45
2024/01/26 10:20:14;;;;;;;394.10;98.80;;;;;;;;;;5032589;28;20522;-45
2024/01/26 10:22:40;;;;;;;408.80;106.95;;;;;;;;;;5032807;28;20029;-44
2024/01/26 10:25:07;;;;;;;513.08;125.35;;;;;;;;;;5032581;28;20023;-44
2024/01/26 10:27:34;;;;;;;425.03;106.37;;;;;;;;;;5032690;28;20104;-45
2024/01/26 10:30:00;;;;;;;357.50;102.38;;;;;;;;;;5032482;28;20268;-45
2024/01/26 10:32:28;;;;;;;407.35;102.82;;;;;;;;;;5031433;28;20049;-44
2024/01/26 10:35:00;;;;;;;329.55;95.40;;;;;;;;;;5032216;28;20084;-45
2024/01/26 10:37:28;;;;;;;396.25;104.90;;;;;;;;;;5032553;28;20168;-45
2024/01/26 10:39:55;;;;;;;474.13;113.47;;;;;;;;;;5031046;28;20061;-45
2024/01/26 10:42:21;;;;;;;;;;;;;;;;;;5032710;28;20032;-45
2024/01/26 10:44:49;;;;;;;410.40;119.25;;;;;;;;;;5032126;28;20497;-45
2024/01/26 10:47:17;;;;;;;494.00;131.63;;;;;;;;;;5030965;28;20510;-45
2024/01/26 10:49:48;;;;;;;424.73;126.38;;;;;;;;;;5032669;28;20102;-45
2024/01/26 10:52:17;;;;;;;403.10;129.20;;;;;;;;;;5030906;28;20492;-47
2024/01/26 10:54:45;;;;;;;577.30;157.32;;;;;;;;;;5031963;28;20026;-46
2024/01/26 10:57:11;;;;;;;442.73;142.23;;;;;;;;;;5032036;28;20053;-43
2024/01/26 10:59:40;;;;;;;498.70;143.40;;;;;;;;;;5031962;28;20087;-46
2024/01/26 11:02:08;;;;;;;425.95;133.45;;;;;;;;;;5031896;28;20116;-45
2024/01/26 11:04:34;;;;;;;529.03;140.35;;;;;;;;;;5030515;28;20135;-45
2024/01/26 11:07:01;;;;;;;441.05;125.07;;;;;;;;;;5030615;28;20022;-44
2024/01/26 11:09:32;;;;;;;455.87;131.13;;;;;;;;;;5031687;28;20037;-47
2024/01/26 11:11:58;;;;;;;440.88;128.98;;;;;;;;;;5030779;28;20396;-45
2024/01/26 11:14:28;;;;;;;491.20;119.95;;;;;;;;;;5030398;28;20452;-46
2024/01/26 11:17:08;;;;;;;355.60;108.07;;;;;;;;;;5030672;28;20025;-48
2024/01/26 11:19:34;;;;;;;532.15;134.85;;;;;;;;;;5031228;28;20076;-46
2024/01/26 11:22:04;;;;;;;487.08;135.55;;;;;;;;;;5032201;28;20022;-45
2024/01/26 11:24:32;;;;;;;680.28;160.00;;;;;;;;;;5031887;28;20048;-48
2024/01/26 11:26:59;;;;;;;645.05;151.00;;;;;;;;;;5029722;28;20106;-45
2024/01/26 11:29:36;;;;;;;512.90;133.05;;;;;;;;;;5030221;28;20025;-46
2024/01/26 11:32:15;;;;;;;399.30;116.05;;;;;;;;;;5033605;28;20037;-47
2024/01/26 11:34:41;;;;;;;369.10;112.72;;;;;;;;;;5031721;28;20388;-44
2024/01/26 11:37:14;;;;;;;321.30;104.57;;;;;;;;;;5030659;28;20031;-45
2024/01/26 11:39:41;;;;;;;458.25;124.97;;;;;;;;;;5029482;28;20021;-45
2024/01/26 11:42:11;;;;;;;341.23;114.07;;;;;;;;;;5047569;28;20078;-45
2024/01/26 11:44:40;;;;;;;452.88;126.75;;;;;;;;;;5029628;28;20369;-44
2024/01/26 11:47:11;;;;;;;647.22;153.75;;;;;;;;;;5027678;28;20025;-45
2024/01/26 11:49:38;;;;;;;434.77;123.97;;;;;;;;;;5034662;28;20064;-45
2024/01/26 11:52:04;;;;;;;406.25;123.43;;;;;;;;;;5049749;28;20522;-45
2024/01/26 11:54:31;;;;;;;491.23;138.43;;;;;;;;;;5014421;28;20064;-47
2024/01/26 11:56:59;;;;;;;425.75;121.88;;;;;;;;;;5047386;28;20333;-46
2024/01/26 11:59:28;;;;;;;450.08;137.18;;;;;;;;;;5038779;28;20098;-44
2024/01/26 12:01:55;;;;;;;416.80;119.78;;;;;;;;;;5035156;28;20043;-45
2024/01/26 12:04:21;;;;;;;376.17;114.95;;;;;;;;;;5021520;28;20495;-45
2024/01/26 12:06:48;;;;;;;479.55;125.75;;;;;;;;;;5035167;28;20036;-44
2024/01/26 12:09:14;;;;;;;587.47;141.77;;;;;;;;;;5053263;28;20025;-45
2024/01/26 12:11:40;;;;;;;523.08;129.82;;;;;;;;;;5028267;28;20059;-45
2024/01/26 12:14:07;;;;;;;625.70;159.00;;;;;;;;;;5051243;28;20580;-45
2024/01/26 12:16:33;;;;;;;396.63;117.85;;;;;;;;;;5040864;28;20483;-46
2024/01/26 12:19:02;;;;;;;610.08;156.38;;;;;;;;;;5039451;28;20029;-45
2024/01/26 12:21:29;;;;;;;434.80;124.90;;;;;;;;;;5041502;28;20422;-48
2024/01/26 12:23:55;;;;;;;345.08;114.72;;;;;;;;;;5050885;28;20060;-45
2024/01/26 12:26:21;;;;;;;670.13;166.10;;;;;;;;;;5035387;28;20028;-45
2024/01/26 12:28:48;;;;;;;678.92;154.60;;;;;;;;;;5053058;28;20094;-44
2024/01/26 12:31:16;;;;;;;355.23;115.15;;;;;;;;;;5025656;28;20486;-46
2024/01/26 12:33:46;;;;;;;431.33;120.07;;;;;;;;;;5039179;28;20037;-46
2024/01/26 12:36:13;;;;;;;335.73;110.30;;;;;;;;;;5053159;28;20037;-46
2024/01/26 12:38:39;;;;;;;;;;;;;;;;;;5031042;28;20052;-44
2024/01/26 12:41:05;;;;;;;341.83;112.03;;;;;;;;;;5045917;28;20380;-45
2024/01/26 12:43:33;;;;;;;589.25;154.95;;;;;;;;;;5032954;28;20117;-44
2024/01/26 12:46:00;;;;;;;382.48;118.20;;;;;;;;;;5040406;28;20025;-44
2024/01/26 12:48:26;;;;;;;486.75;139.50;;;;;;;;;;5031519;28;20072;-45
2024/01/26 12:50:53;;;;;;;576.92;143.57;;;;;;;;;;5036339;28;20496;-44
2024/01/26 12:53:19;;;;;;;517.60;134.83;;;;;;;;;;5032983;28;20099;-45
2024/01/26 12:55:45;;;;;;;389.98;116.47;;;;;;;;;;5032649;28;20029;-45
2024/01/26 12:58:11;;;;;;;444.90;119.80;;;;;;;;;;5031458;28;20538;-46
2024/01/26 13:00:38;;;;;;;397.58;120.65;;;;;;;;;;5030974;28;20318;-45
2024/01/26 13:03:05;;;;;;;388.13;119.15;;;;;;;;;;5032656;28;20029;-44
2024/01/26 13:05:32;;;;;;;;;;;;;;;;;;5032427;28;20029;-45
2024/01/26 13:07:58;;;;;;;469.10;123.15;;;;;;;;;;5032673;28;20047;-45
2024/01/26 13:10:24;;;;;;;485.95;138.32;;;;;;;;;;5032419;28;20452;-45
2024/01/26 13:12:50;;;;;;;516.45;141.57;;;;;;;;;;5032628;28;20435;-45
2024/01/26 13:15:18;;;;;;;481.40;131.65;;;;;;;;;;5030707;28;20033;-45
2024/01/26 13:17:44;;;;;;;;;;;;;;;;;;5031768;28;20145;-44
2024/01/26 13:20:11;;;;;;;417.42;116.72;;;;;;;;;;5030948;28;19913;-45
2024/01/26 13:22:37;;;;;;;372.50;113.85;;;;;;;;;;5032169;28;20044;-45
2024/01/26 13:25:04;;;;;;;366.50;113.38;;;;;;;;;;5030881;28;20021;-46
2024/01/26 13:27:30;;;;;;;369.70;114.00;;;;;;;;;;5031063;28;20033;-45
2024/01/26 13:29:57;;;;;;;357.70;114.05;;;;;;;;;;5032023;28;20386;-45
2024/01/26 13:32:23;;;;;;;428.60;115.10;;;;;;;;;;5031958;28;20037;-45
2024/01/26 13:34:49;;;;;;;454.52;127.75;;;;;;;;;;5030751;28;20832;-44
2024/01/26 13:37:15;;;;;;;339.20;116.38;;;;;;;;;;5031013;28;20033;-45
2024/01/26 13:39:42;;;;;;;355.33;117.07;;;;;;;;;;5031471;28;20033;-45
2024/01/26 13:42:08;;;;;;;398.80;118.75;;;;;;;;;;5030437;28;20037;-45
2024/01/26 13:44:34;;;;;;;408.77;124.57;;;;;;;;;;5032476;28;20075;-46
2024/01/26 13:47:01;;;;;;;345.50;112.25;;;;;;;;;;5030743;28;20029;-45
2024/01/26 13:49:27;;;;;;;440.45;128.80;;;;;;;;;;5034304;28;20119;-46
2024/01/26 13:51:54;;;;;;;343.60;115.55;;;;;;;;;;5042128;28;20029;-45
2024/01/26 13:54:20;;;;;;;412.15;121.07;;;;;;;;;;5033299;28;20022;-45
2024/01/26 13:56:51;;;;;;;353.00;118.77;;;;;;;;;;5014146;28;20049;-46
2024/01/26 13:59:17;;;;;;;605.80;154.55;;;;;;;;;;5030976;28;20120;-44
2024/01/26 14:01:44;;;;;;;471.93;126.30;;;;;;;;;;5032101;28;20017;-46